Time;durP1;ratioP1;P1;durP2;ratioP2;P2;SDS_P1;SDS_P2;PMS_P1;PMS_P2;Temp;Humidity;BMP_temperature;BMP_pressure;BME280_temperature;BME280_humidity;BME280_pressure;Samples;Min_cycle;Max_cycle;Signal;HPM_P1;HPM_P2
2022/05/16 00:01:13;;;;;;;21.73;10.18;;;;;;;;;;5053866;28;20388;-70
2022/05/16 00:04:18;;;;;;;27.90;10.65;;;;;;;;;;5053694;28;20055;-70
2022/05/16 00:07:22;;;;;;;17.08;11.05;;;;;;;;;;5053526;28;20163;-70
2022/05/16 00:10:26;;;;;;;25.20;10.38;;;;;;;;;;5053272;28;20048;-70
2022/05/16 00:13:30;;;;;;;20.17;10.23;;;;;;;;;;5052726;28;20048;-69
2022/05/16 00:16:35;;;;;;;25.83;11.25;;;;;;;;;;5053196;28;20060;-70
2022/05/16 00:19:40;;;;;;;18.35;10.40;;;;;;;;;;5053439;28;20508;-70
2022/05/16 00:22:44;;;;;;;22.25;9.48;;;;;;;;;;5053112;28;20040;-70
2022/05/16 00:25:48;;;;;;;24.17;9.98;;;;;;;;;;5053295;28;20044;-70
2022/05/16 00:28:53;;;;;;;24.40;10.38;;;;;;;;;;5053039;28;20044;-70
2022/05/16 00:31:57;;;;;;;19.67;11.25;;;;;;;;;;5051979;28;20051;-70
2022/05/16 00:35:04;;;;;;;24.17;11.15;;;;;;;;;;5052940;28;20417;-69
2022/05/16 00:38:08;;;;;;;20.10;11.02;;;;;;;;;;5053029;28;20068;-69
2022/05/16 00:41:13;;;;;;;23.17;10.32;;;;;;;;;;5052949;28;20499;-70
2022/05/16 00:44:17;;;;;;;26.73;10.30;;;;;;;;;;5052495;28;20060;-70
2022/05/16 00:47:22;;;;;;;21.45;9.82;;;;;;;;;;5052887;28;20060;-70
2022/05/16 00:50:27;;;;;;;18.17;10.40;;;;;;;;;;5052754;28;20055;-70
2022/05/16 00:53:32;;;;;;;34.55;11.57;;;;;;;;;;5052631;28;20043;-70
2022/05/16 00:56:36;;;;;;;23.88;11.27;;;;;;;;;;5051596;28;20067;-69
2022/05/16 00:59:43;;;;;;;27.88;11.82;;;;;;;;;;5052426;28;20060;-70
2022/05/16 01:06:14;;;;;;;22.48;11.38;;;;;;;;;;5052349;28;20044;-69
2022/05/16 01:09:18;;;;;;;25.45;10.95;;;;;;;;;;5051999;28;20072;-69
2022/05/16 01:12:25;;;;;;;24.25;11.70;;;;;;;;;;5052410;28;20044;-69
2022/05/16 01:15:42;;;;;;;23.50;12.23;;;;;;;;;;5052322;28;20059;-70
2022/05/16 01:18:46;;;;;;;32.47;11.80;;;;;;;;;;5052342;28;20044;-70
2022/05/16 01:21:50;;;;;;;22.85;11.65;;;;;;;;;;5052245;28;20048;-70
2022/05/16 01:24:55;;;;;;;25.75;12.55;;;;;;;;;;5051821;28;20040;-70
2022/05/16 01:28:04;;;;;;;27.90;12.02;;;;;;;;;;5052183;28;20504;-70
2022/05/16 01:31:08;;;;;;;26.15;11.90;;;;;;;;;;5051453;28;20052;-69
2022/05/16 01:34:14;;;;;;;27.05;11.50;;;;;;;;;;5052073;28;20103;-70
2022/05/16 01:37:19;;;;;;;26.58;12.13;;;;;;;;;;5051754;28;20071;-69
2022/05/16 01:40:42;;;;;;;24.35;11.95;;;;;;;;;;5051602;28;20056;-70
2022/05/16 01:43:48;;;;;;;27.58;12.45;;;;;;;;;;5051754;28;20048;-70
2022/05/16 01:46:52;;;;;;;21.70;12.15;;;;;;;;;;5051561;28;20103;-70
2022/05/16 01:49:57;;;;;;;24.55;11.23;;;;;;;;;;5051713;28;20044;-70
2022/05/16 01:53:01;;;;;;;23.73;10.75;;;;;;;;;;5051510;28;20526;-70
2022/05/16 01:56:05;;;;;;;27.45;11.45;;;;;;;;;;5050497;28;20436;-69
2022/05/16 01:59:10;;;;;;;24.55;11.40;;;;;;;;;;5051567;28;20044;-70
2022/05/16 02:02:14;;;;;;;26.85;11.82;;;;;;;;;;5039058;28;20507;-70
2022/05/16 02:05:20;;;;;;;19.67;10.88;;;;;;;;;;5051248;28;20044;-69
2022/05/16 02:08:24;;;;;;;24.48;11.02;;;;;;;;;;5051242;28;20440;-69
2022/05/16 02:11:29;;;;;;;21.20;11.18;;;;;;;;;;5051430;28;20051;-69
2022/05/16 02:14:33;;;;;;;24.25;11.95;;;;;;;;;;5050495;28;20039;-69
2022/05/16 02:17:38;;;;;;;25.30;11.82;;;;;;;;;;5050517;28;20615;-70
2022/05/16 02:20:43;;;;;;;24.70;11.40;;;;;;;;;;5051054;28;20040;-69
2022/05/16 02:27:12;;;;;;;22.83;12.82;;;;;;;;;;5051669;28;20044;-69
2022/05/16 02:30:17;;;;;;;21.60;11.20;;;;;;;;;;5049929;28;20036;-69
2022/05/16 02:33:21;;;;;;;19.08;10.40;;;;;;;;;;5050091;28;20048;-69
2022/05/16 02:36:25;;;;;;;25.13;10.68;;;;;;;;;;5050494;28;20068;-70
2022/05/16 02:39:30;;;;;;;19.90;10.57;;;;;;;;;;5050633;28;20036;-70
2022/05/16 02:42:35;;;;;;;30.60;12.23;;;;;;;;;;5050862;28;20107;-69
2022/05/16 02:45:39;;;;;;;21.17;10.93;;;;;;;;;;5050796;28;20040;-69
2022/05/16 02:48:43;;;;;;;27.48;10.77;;;;;;;;;;5050544;28;20040;-69
2022/05/16 02:51:48;;;;;;;22.02;10.65;;;;;;;;;;5050800;28;20052;-70
2022/05/16 02:54:52;;;;;;;21.23;10.98;;;;;;;;;;5053891;28;20040;-69
2022/05/16 02:57:56;;;;;;;26.15;10.63;;;;;;;;;;5054136;28;20076;-69
2022/05/16 03:01:01;;;;;;;20.52;9.07;;;;;;;;;;5054933;28;20039;-70
2022/05/16 03:04:05;;;;;;;18.35;10.25;;;;;;;;;;5053895;28;20440;-70
2022/05/16 03:07:09;;;;;;;15.55;8.75;;;;;;;;;;5054807;28;20048;-69
2022/05/16 03:10:15;;;;;;;16.00;8.45;;;;;;;;;;5053439;28;20059;-69
2022/05/16 03:13:19;;;;;;;27.55;10.27;;;;;;;;;;5054567;28;20401;-69
2022/05/16 03:16:24;;;;;;;24.25;10.63;;;;;;;;;;5054375;28;20055;-69
2022/05/16 03:19:28;;;;;;;22.52;10.43;;;;;;;;;;5054451;28;20401;-69
2022/05/16 03:22:32;;;;;;;25.35;10.05;;;;;;;;;;5054432;28;20060;-69
2022/05/16 03:25:37;;;;;;;19.98;11.35;;;;;;;;;;5054511;28;20492;-69
2022/05/16 03:28:41;;;;;;;28.00;13.18;;;;;;;;;;5054437;28;20044;-69
2022/05/16 03:31:45;;;;;;;25.98;14.02;;;;;;;;;;5054366;28;20247;-69
2022/05/16 03:34:51;;;;;;;28.15;13.45;;;;;;;;;;5054190;28;20052;-69
2022/05/16 03:37:55;;;;;;;29.85;14.63;;;;;;;;;;5054337;28;20059;-69
2022/05/16 03:41:00;;;;;;;25.00;13.38;;;;;;;;;;5054417;28;20512;-69
2022/05/16 03:44:04;;;;;;;26.75;13.75;;;;;;;;;;5054135;28;20051;-69
2022/05/16 03:47:09;;;;;;;24.92;14.00;;;;;;;;;;5053116;28;20413;-69
2022/05/16 03:50:14;;;;;;;26.05;14.75;;;;;;;;;;5053808;28;20527;-69
2022/05/16 03:53:18;;;;;;;24.33;14.10;;;;;;;;;;5054425;28;20052;-69
2022/05/16 03:56:23;;;;;;;23.65;13.77;;;;;;;;;;5053653;28;20409;-70
2022/05/16 03:59:28;;;;;;;25.70;15.35;;;;;;;;;;5053883;28;20420;-69
2022/05/16 04:02:32;;;;;;;38.10;13.95;;;;;;;;;;5053873;28;20044;-69
2022/05/16 04:05:37;;;;;;;23.23;13.80;;;;;;;;;;5053571;28;20048;-70
2022/05/16 04:08:42;;;;;;;22.13;12.85;;;;;;;;;;5053379;28;20052;-69
2022/05/16 04:11:46;;;;;;;30.67;14.32;;;;;;;;;;5053586;28;20048;-69
2022/05/16 04:14:50;;;;;;;35.13;13.90;;;;;;;;;;5052657;28;20488;-70
2022/05/16 04:17:54;;;;;;;25.80;13.95;;;;;;;;;;5053495;28;20055;-69
2022/05/16 04:21:00;;;;;;;26.65;13.93;;;;;;;;;;5053150;28;20076;-69
2022/05/16 04:24:05;;;;;;;29.38;15.27;;;;;;;;;;5053277;28;20044;-70
2022/05/16 04:27:09;;;;;;;36.10;14.82;;;;;;;;;;5052297;28;20048;-69
2022/05/16 04:30:15;;;;;;;22.95;13.77;;;;;;;;;;5053254;28;20048;-70
2022/05/16 04:33:19;;;;;;;28.38;13.40;;;;;;;;;;5053272;28;20036;-70
2022/05/16 04:36:24;;;;;;;32.30;13.35;;;;;;;;;;5052273;28;20056;-70
2022/05/16 04:39:28;;;;;;;31.80;12.93;;;;;;;;;;5052918;28;20044;-70
2022/05/16 04:42:41;;;;;;;33.05;12.32;;;;;;;;;;5052263;28;20056;-70
2022/05/16 04:45:46;;;;;;;24.13;12.05;;;;;;;;;;5052648;28;20044;-70
2022/05/16 04:48:50;;;;;;;25.55;11.43;;;;;;;;;;5052607;28;20043;-70
2022/05/16 04:51:55;;;;;;;29.95;10.60;;;;;;;;;;5052725;28;20044;-70
2022/05/16 04:55:00;;;;;;;24.92;12.10;;;;;;;;;;5052653;28;20063;-70
2022/05/16 04:58:04;;;;;;;22.95;11.18;;;;;;;;;;5052673;28;20075;-70
2022/05/16 05:01:08;;;;;;;27.77;11.13;;;;;;;;;;5052317;28;20040;-70
2022/05/16 05:04:13;;;;;;;27.85;11.55;;;;;;;;;;5052082;28;20048;-70
2022/05/16 05:07:17;;;;;;;30.70;11.48;;;;;;;;;;5052644;28;20099;-70
2022/05/16 05:17:10;;;;;;;24.90;11.05;;;;;;;;;;5051368;28;20528;-70
2022/05/16 05:20:15;;;;;;;32.53;13.27;;;;;;;;;;5052072;28;20044;-70
2022/05/16 05:23:19;;;;;;;27.58;12.25;;;;;;;;;;5052176;28;20056;-69
2022/05/16 05:26:23;;;;;;;37.70;13.00;;;;;;;;;;5051541;28;20423;-65
2022/05/16 05:29:27;;;;;;;34.13;13.95;;;;;;;;;;5052359;28;20052;-65
2022/05/16 05:32:32;;;;;;;23.48;12.70;;;;;;;;;;5052339;28;20064;-65
2022/05/16 05:35:37;;;;;;;32.42;14.13;;;;;;;;;;5051705;28;20055;-65
2022/05/16 05:38:41;;;;;;;45.53;15.23;;;;;;;;;;5051723;28;20456;-65
2022/05/16 05:41:45;;;;;;;37.08;15.38;;;;;;;;;;5051762;28;20611;-65
2022/05/16 05:44:50;;;;;;;33.70;14.18;;;;;;;;;;5051707;28;20429;-65
2022/05/16 05:47:54;;;;;;;43.75;14.93;;;;;;;;;;5051456;28;20044;-65
2022/05/16 05:50:59;;;;;;;31.60;14.07;;;;;;;;;;5051766;28;20507;-65
2022/05/16 05:54:03;;;;;;;27.13;15.40;;;;;;;;;;5050790;28;20044;-65
2022/05/16 05:57:08;;;;;;;33.13;14.90;;;;;;;;;;5051312;28;20047;-65
2022/05/16 06:00:13;;;;;;;41.17;14.23;;;;;;;;;;5051271;28;20051;-65
2022/05/16 06:03:17;;;;;;;30.45;17.15;;;;;;;;;;5050559;28;20043;-64
2022/05/16 06:06:21;;;;;;;38.42;15.13;;;;;;;;;;5050951;28;20666;-65
2022/05/16 06:09:26;;;;;;;39.70;14.13;;;;;;;;;;5050923;28;20052;-65
2022/05/16 06:12:30;;;;;;;37.63;14.52;;;;;;;;;;5051249;28;20040;-64
2022/05/16 06:15:35;;;;;;;31.77;13.70;;;;;;;;;;5050882;28;20044;-65
2022/05/16 06:18:39;;;;;;;36.95;13.55;;;;;;;;;;5050347;28;20246;-64
2022/05/16 06:21:43;;;;;;;32.38;12.48;;;;;;;;;;5051014;28;20048;-65
2022/05/16 06:28:10;;;;;;;22.42;10.38;;;;;;;;;;5050025;28;20044;-65
2022/05/16 06:31:15;;;;;;;21.55;8.07;;;;;;;;;;5050789;28;20044;-64
2022/05/16 06:34:19;;;;;;;28.67;10.38;;;;;;;;;;5050717;28;20104;-65
2022/05/16 06:37:23;;;;;;;25.73;12.75;;;;;;;;;;5050507;28;20405;-65
2022/05/16 06:40:28;;;;;;;36.65;13.77;;;;;;;;;;5050749;28;20064;-64
2022/05/16 06:43:34;;;;;;;25.00;11.25;;;;;;;;;;5050779;28;20051;-64
2022/05/16 06:46:39;;;;;;;30.13;11.32;;;;;;;;;;5050682;28;20048;-64
2022/05/16 06:49:43;;;;;;;42.38;13.80;;;;;;;;;;5050829;28;20495;-64
2022/05/16 06:52:48;;;;;;;34.38;13.23;;;;;;;;;;5051072;28;20059;-64
2022/05/16 06:55:52;;;;;;;37.42;12.65;;;;;;;;;;5050488;28;20044;-64
2022/05/16 06:58:56;;;;;;;31.85;12.65;;;;;;;;;;5050774;28;20119;-65
2022/05/16 07:02:01;;;;;;;26.35;11.32;;;;;;;;;;5049763;28;20040;-64
2022/05/16 07:05:06;;;;;;;32.58;11.02;;;;;;;;;;5050408;28;20052;-65
2022/05/16 07:08:11;;;;;;;26.48;11.95;;;;;;;;;;5049610;28;20032;-64
2022/05/16 07:11:15;;;;;;;23.75;11.07;;;;;;;;;;5050593;28;20051;-65
2022/05/16 07:14:19;;;;;;;40.92;9.13;;;;;;;;;;5050260;28;20044;-64
2022/05/16 07:17:24;;;;;;;30.38;8.35;;;;;;;;;;5050429;28;20056;-64
2022/05/16 07:20:29;;;;;;;30.67;10.30;;;;;;;;;;5050474;28;20499;-64
2022/05/16 07:23:33;;;;;;;25.92;8.90;;;;;;;;;;5049695;28;20051;-63
2022/05/16 07:30:00;;;;;;;23.30;8.85;;;;;;;;;;5050374;28;20052;-65
2022/05/16 07:33:04;;;;;;;26.08;8.52;;;;;;;;;;5050480;28;20048;-63
2022/05/16 07:36:09;;;;;;;26.25;9.48;;;;;;;;;;5049707;28;20072;-67
2022/05/16 07:39:13;;;;;;;22.30;8.48;;;;;;;;;;5050059;28;20496;-68
2022/05/16 07:42:18;;;;;;;29.25;10.40;;;;;;;;;;5052417;28;20044;-68
2022/05/16 07:45:22;;;;;;;29.35;9.63;;;;;;;;;;5053276;28;20048;-68
2022/05/16 07:48:26;;;;;;;22.42;9.02;;;;;;;;;;5052281;28;20052;-68
2022/05/16 07:51:31;;;;;;;27.20;9.85;;;;;;;;;;5053224;28;20052;-68
2022/05/16 07:54:37;;;;;;;20.38;8.13;;;;;;;;;;5053133;28;20059;-65
2022/05/16 07:57:41;;;;;;;29.42;8.13;;;;;;;;;;5053544;28;20071;-67
2022/05/16 08:00:48;;;;;;;25.25;7.55;;;;;;;;;;5053768;28;20504;-67
2022/05/16 08:03:52;;;;;;;26.77;7.63;;;;;;;;;;5053518;28;20047;-66
2022/05/16 08:06:56;;;;;;;23.60;6.53;;;;;;;;;;5053736;28;20051;-66
2022/05/16 08:13:23;;;;;;;23.33;7.90;;;;;;;;;;5053469;28;20048;-66
2022/05/16 08:16:28;;;;;;;38.72;9.73;;;;;;;;;;5053211;28;20040;-67
2022/05/16 08:19:35;;;;;;;25.20;7.32;;;;;;;;;;5053421;28;20041;-66
2022/05/16 08:22:39;;;;;;;29.15;6.70;;;;;;;;;;5052913;28;20040;-66
2022/05/16 08:25:45;;;;;;;19.08;6.13;;;;;;;;;;5053162;28;20064;-66
2022/05/16 08:28:49;;;;;;;21.83;5.95;;;;;;;;;;5053228;28;20072;-66
2022/05/16 08:31:54;;;;;;;21.00;5.03;;;;;;;;;;5053189;28;20036;-66
2022/05/16 08:35:00;;;;;;;13.73;4.57;;;;;;;;;;5052596;28;20048;-66
2022/05/16 08:41:34;;;;;;;14.55;4.72;;;;;;;;;;5052720;28;20044;-66
2022/05/16 08:44:39;;;;;;;15.52;5.10;;;;;;;;;;5052764;28;20044;-66
2022/05/16 08:47:59;;;;;;;18.63;4.85;;;;;;;;;;5052686;28;20044;-66
2022/05/16 08:51:07;;;;;;;15.30;4.85;;;;;;;;;;5051997;28;20036;-67
2022/05/16 08:54:30;;;;;;;17.63;5.00;;;;;;;;;;5052708;28;20318;-66
2022/05/16 08:57:40;;;;;;;17.45;7.15;;;;;;;;;;5052545;28;20052;-66
2022/05/16 09:00:49;;;;;;;21.42;5.07;;;;;;;;;;5051698;28;20035;-68
2022/05/16 09:04:02;;;;;;;22.52;4.50;;;;;;;;;;5052124;28;20506;-66
2022/05/16 09:07:07;;;;;;;14.95;4.40;;;;;;;;;;5052344;28;20044;-66
2022/05/16 09:10:11;;;;;;;16.60;3.95;;;;;;;;;;5052063;28;20436;-66
2022/05/16 09:13:34;;;;;;;12.57;4.00;;;;;;;;;;5052391;28;20048;-66
2022/05/16 09:16:39;;;;;;;13.25;4.25;;;;;;;;;;5052107;28;20052;-66
2022/05/16 09:20:02;;;;;;;15.35;4.05;;;;;;;;;;5052020;28;20044;-67
2022/05/16 09:23:13;;;;;;;16.45;4.28;;;;;;;;;;5052311;28;20047;-66
2022/05/16 09:26:18;;;;;;;17.50;5.35;;;;;;;;;;5050940;28;20048;-66
2022/05/16 09:29:22;;;;;;;12.13;4.38;;;;;;;;;;5052045;28;20108;-66
2022/05/16 09:32:29;;;;;;;13.13;4.47;;;;;;;;;;5052172;28;20052;-66
2022/05/16 09:35:52;;;;;;;15.10;4.32;;;;;;;;;;5051635;28;20063;-66
2022/05/16 09:38:57;;;;;;;17.10;5.50;;;;;;;;;;5051931;28;20048;-66
2022/05/16 09:42:21;;;;;;;15.10;4.68;;;;;;;;;;5051722;28;20100;-66
2022/05/16 09:45:28;;;;;;;18.63;5.65;;;;;;;;;;5051964;28;20047;-66
2022/05/16 09:48:32;;;;;;;10.95;4.32;;;;;;;;;;5051431;28;20509;-66
2022/05/16 09:51:45;;;;;;;20.65;4.95;;;;;;;;;;5051781;28;20048;-66
2022/05/16 09:54:59;;;;;;;28.20;5.88;;;;;;;;;;5051652;28;20436;-66
2022/05/16 09:58:14;;;;;;;22.42;5.32;;;;;;;;;;5051645;28;20052;-66
2022/05/16 10:01:40;;;;;;;17.90;5.68;;;;;;;;;;5051729;28;20048;-66
2022/05/16 10:04:45;;;;;;;13.55;4.68;;;;;;;;;;5051780;28;20508;-66
2022/05/16 10:07:51;;;;;;;16.73;6.05;;;;;;;;;;5051439;28;20044;-66
2022/05/16 10:10:56;;;;;;;15.43;4.90;;;;;;;;;;5051608;28;20044;-66
2022/05/16 10:14:00;;;;;;;20.65;6.10;;;;;;;;;;5051250;28;20044;-66
2022/05/16 10:17:05;;;;;;;19.75;6.65;;;;;;;;;;5053386;28;20043;-66
2022/05/16 10:20:18;;;;;;;15.48;5.97;;;;;;;;;;5051282;28;20048;-66
2022/05/16 10:23:27;;;;;;;17.45;5.80;;;;;;;;;;5050731;28;20043;-66
2022/05/16 10:26:35;;;;;;;19.42;6.28;;;;;;;;;;5051560;28;20040;-67
2022/05/16 10:29:43;;;;;;;22.42;6.72;;;;;;;;;;5051522;28;20084;-67
2022/05/16 10:36:26;;;;;;;14.93;5.63;;;;;;;;;;5050483;28;20040;-67
2022/05/16 10:39:31;;;;;;;15.02;5.90;;;;;;;;;;5050604;28;20052;-67
2022/05/16 10:42:39;;;;;;;20.40;7.70;;;;;;;;;;5050071;28;20424;-67
2022/05/16 10:45:47;;;;;;;13.45;6.00;;;;;;;;;;5050457;28;20048;-67
2022/05/16 10:48:51;;;;;;;20.92;8.25;;;;;;;;;;5049836;28;20040;-67
2022/05/16 10:51:59;;;;;;;16.98;6.72;;;;;;;;;;5049149;28;20506;-66
2022/05/16 10:55:04;;;;;;;19.38;7.03;;;;;;;;;;5050557;28;20044;-67
2022/05/16 10:58:15;;;;;;;13.32;5.00;;;;;;;;;;5050675;28;20052;-67
2022/05/16 11:01:29;;;;;;;19.23;6.07;;;;;;;;;;5050320;28;20380;-66
2022/05/16 11:04:33;;;;;;;23.90;5.78;;;;;;;;;;5049795;28;20456;-67
2022/05/16 11:08:03;;;;;;;20.70;6.30;;;;;;;;;;5050908;28;20044;-66
2022/05/16 11:11:14;;;;;;;17.08;6.18;;;;;;;;;;5050767;28;20056;-67
2022/05/16 11:14:25;;;;;;;13.48;5.28;;;;;;;;;;5051208;28;20044;-67
2022/05/16 11:17:48;;;;;;;15.35;5.68;;;;;;;;;;5055115;28;20056;-67
2022/05/16 11:20:56;;;;;;;10.82;4.68;;;;;;;;;;5055250;28;20052;-66
2022/05/16 11:24:07;;;;;;;16.77;5.40;;;;;;;;;;5055069;28;20048;-67
2022/05/16 11:27:24;;;;;;;10.63;4.50;;;;;;;;;;5054739;28;20055;-66
2022/05/16 11:30:42;;;;;;;14.32;4.82;;;;;;;;;;5054461;28;20056;-67
2022/05/16 11:33:47;;;;;;;18.92;5.75;;;;;;;;;;5053759;28;20067;-66
2022/05/16 11:36:59;;;;;;;12.25;4.93;;;;;;;;;;5053708;28;20044;-66
2022/05/16 11:40:11;;;;;;;12.52;5.25;;;;;;;;;;5054216;28;20044;-66
2022/05/16 11:43:24;;;;;;;16.10;4.88;;;;;;;;;;5053750;28;20060;-66
2022/05/16 11:46:36;;;;;;;11.07;4.45;;;;;;;;;;5054165;28;20036;-66
2022/05/16 11:49:50;;;;;;;24.63;13.25;;;;;;;;;;5053866;28;20039;-66
2022/05/16 11:53:03;;;;;;;14.35;5.35;;;;;;;;;;5054073;28;20064;-66
2022/05/16 12:03:19;;;;;;;14.50;5.68;;;;;;;;;;5053440;28;20489;-67
2022/05/16 12:06:32;;;;;;;22.80;7.05;;;;;;;;;;5053452;28;20044;-67
2022/05/16 12:09:50;;;;;;;22.48;6.63;;;;;;;;;;5053682;28;20060;-66
2022/05/16 12:13:13;;;;;;;21.88;6.65;;;;;;;;;;5053760;28;20048;-66
2022/05/16 12:16:28;;;;;;;17.88;6.72;;;;;;;;;;5053643;28;20051;-66
2022/05/16 12:19:34;;;;;;;17.77;6.35;;;;;;;;;;5053453;28;20052;-66
2022/05/16 12:22:39;;;;;;;12.35;6.22;;;;;;;;;;5053213;28;20044;-70
2022/05/16 12:25:43;;;;;;;16.20;7.05;;;;;;;;;;5052296;28;20055;-69
2022/05/16 12:29:08;;;;;;;17.27;6.22;;;;;;;;;;5053501;28;20048;-70
2022/05/16 12:32:30;;;;;;;18.45;6.60;;;;;;;;;;5053006;28;20052;-67
2022/05/16 12:35:36;;;;;;;14.30;6.28;;;;;;;;;;5053014;28;20150;-67
2022/05/16 12:38:42;;;;;;;20.58;7.72;;;;;;;;;;5051913;28;20056;-68
2022/05/16 12:42:07;;;;;;;23.23;7.18;;;;;;;;;;5052421;28;20055;-71
2022/05/16 12:45:25;;;;;;;21.05;7.05;;;;;;;;;;5052129;28;20500;-71
2022/05/16 12:48:35;;;;;;;21.85;6.65;;;;;;;;;;5053175;28;20476;-69
2022/05/16 12:51:51;;;;;;;15.30;6.45;;;;;;;;;;5051860;28;20500;-69
2022/05/16 12:55:10;;;;;;;13.93;6.25;;;;;;;;;;5052309;28;20511;-69
2022/05/16 12:58:25;;;;;;;13.65;6.45;;;;;;;;;;5052401;28;20060;-70
2022/05/16 13:01:36;;;;;;;14.82;6.60;;;;;;;;;;5052616;28;20040;-70
2022/05/16 13:04:58;;;;;;;22.17;7.10;;;;;;;;;;5052083;28;20066;-69
2022/05/16 13:08:15;;;;;;;16.92;5.50;;;;;;;;;;5052357;28;20112;-68
2022/05/16 13:11:26;;;;;;;16.15;6.85;;;;;;;;;;5052465;28;20060;-68
2022/05/16 13:14:46;;;;;;;24.90;7.38;;;;;;;;;;5051047;28;20050;-68
2022/05/16 13:17:53;;;;;;;14.43;6.57;;;;;;;;;;5052082;28;20521;-68
2022/05/16 13:21:01;;;;;;;19.05;6.80;;;;;;;;;;5052269;28;20044;-68
2022/05/16 13:24:13;;;;;;;19.27;6.18;;;;;;;;;;5052157;28;20389;-68
2022/05/16 13:30:42;;;;;;;27.50;6.63;;;;;;;;;;5051955;28;20048;-68
2022/05/16 13:33:46;;;;;;;22.45;6.10;;;;;;;;;;5052231;28;20396;-68
2022/05/16 13:36:51;;;;;;;27.33;7.38;;;;;;;;;;5051613;28;20051;-69
2022/05/16 13:39:57;;;;;;;19.33;5.60;;;;;;;;;;5051240;28;20044;-70
2022/05/16 13:43:11;;;;;;;16.92;6.22;;;;;;;;;;5051044;28;20040;-69
2022/05/16 13:46:15;;;;;;;18.70;6.05;;;;;;;;;;5051234;28;20052;-69
2022/05/16 13:49:19;;;;;;;17.30;5.15;;;;;;;;;;5051517;28;20040;-69
2022/05/16 13:52:25;;;;;;;18.48;5.97;;;;;;;;;;5051770;28;20056;-69
2022/05/16 13:55:30;;;;;;;18.17;5.70;;;;;;;;;;5051776;28;20048;-68
2022/05/16 13:58:35;;;;;;;13.20;5.05;;;;;;;;;;5051546;28;20052;-68
2022/05/16 14:01:49;;;;;;;13.85;4.40;;;;;;;;;;5051647;28;20046;-68
2022/05/16 14:04:55;;;;;;;11.07;5.05;;;;;;;;;;5051194;28;20068;-69
2022/05/16 14:08:00;;;;;;;10.23;5.00;;;;;;;;;;5051155;28;20417;-69
2022/05/16 14:11:05;;;;;;;13.32;3.92;;;;;;;;;;5050925;28;20056;-69
2022/05/16 14:14:11;;;;;;;15.93;5.22;;;;;;;;;;5050344;28;20048;-70
2022/05/16 14:17:34;;;;;;;15.82;4.90;;;;;;;;;;5050372;28;20051;-69
2022/05/16 14:20:40;;;;;;;12.35;4.18;;;;;;;;;;5050864;28;20508;-69
2022/05/16 14:23:58;;;;;;;14.10;4.50;;;;;;;;;;5050964;28;20405;-69
2022/05/16 14:27:02;;;;;;;10.63;4.38;;;;;;;;;;5051166;28;20056;-69
2022/05/16 14:30:34;;;;;;;17.38;4.40;;;;;;;;;;5050976;28;20504;-68
2022/05/16 14:33:40;;;;;;;15.93;4.57;;;;;;;;;;5050979;28;20526;-71
2022/05/16 14:36:46;;;;;;;12.18;4.65;;;;;;;;;;5050994;28;20048;-70
2022/05/16 14:39:52;;;;;;;26.05;5.88;;;;;;;;;;5050924;28;20048;-70
2022/05/16 14:43:06;;;;;;;12.18;3.75;;;;;;;;;;5050907;28;20063;-69
2022/05/16 14:49:39;;;;;;;15.05;4.60;;;;;;;;;;5049905;28;20050;-68
2022/05/16 14:53:05;;;;;;;11.98;4.03;;;;;;;;;;5051102;28;20047;-69
2022/05/16 14:56:09;;;;;;;12.25;4.05;;;;;;;;;;5049986;28;20044;-69
2022/05/16 14:59:14;;;;;;;10.90;3.92;;;;;;;;;;5050926;28;20055;-68
2022/05/16 15:05:41;;;;;;;22.67;4.43;;;;;;;;;;5050872;28;20048;-68
2022/05/16 15:08:48;;;;;;;14.43;4.85;;;;;;;;;;5049793;28;20052;-70
2022/05/16 15:11:54;;;;;;;12.90;4.00;;;;;;;;;;5050338;28;20054;-66
2022/05/16 15:14:59;;;;;;;13.65;4.32;;;;;;;;;;5050508;28;20112;-69
2022/05/16 15:18:04;;;;;;;12.77;3.78;;;;;;;;;;5049787;28;20056;-68
2022/05/16 15:21:08;;;;;;;20.35;6.10;;;;;;;;;;5049703;28;20040;-68
2022/05/16 15:24:34;;;;;;;12.98;4.18;;;;;;;;;;5050182;28;20424;-68
2022/05/16 15:27:41;;;;;;;14.45;4.30;;;;;;;;;;5049398;28;20044;-68
2022/05/16 15:30:45;;;;;;;17.50;4.72;;;;;;;;;;5050449;28;20064;-68
2022/05/16 15:33:50;;;;;;;17.25;4.70;;;;;;;;;;5049730;28;20495;-68
2022/05/16 15:36:54;;;;;;;14.10;4.65;;;;;;;;;;5050095;28;20393;-68
2022/05/16 15:39:58;;;;;;;18.77;4.72;;;;;;;;;;5050346;28;20064;-68
2022/05/16 15:43:07;;;;;;;15.82;4.50;;;;;;;;;;5049056;28;20488;-68
2022/05/16 15:46:13;;;;;;;12.38;3.88;;;;;;;;;;5049984;28;20056;-69
2022/05/16 15:49:18;;;;;;;21.25;4.90;;;;;;;;;;5050503;28;20072;-66
2022/05/16 15:52:23;;;;;;;23.45;4.47;;;;;;;;;;5049989;28;20044;-67
2022/05/16 15:55:27;;;;;;;18.25;6.00;;;;;;;;;;5049485;28;20055;-67
2022/05/16 15:58:32;;;;;;;12.02;4.00;;;;;;;;;;5049996;28;20056;-67
2022/05/16 16:01:37;;;;;;;20.30;4.65;;;;;;;;;;5053112;28;20048;-66
2022/05/16 16:11:28;;;;;;;16.63;5.10;;;;;;;;;;5053816;28;20056;-68
2022/05/16 16:14:32;;;;;;;28.00;6.13;;;;;;;;;;5053536;28;20067;-69
2022/05/16 16:17:37;;;;;;;18.48;5.22;;;;;;;;;;5052954;28;20060;-68
2022/05/16 16:20:45;;;;;;;8.80;3.90;;;;;;;;;;5054051;28;20043;-69
2022/05/16 16:23:49;;;;;;;11.82;4.43;;;;;;;;;;5054167;28;20476;-70
2022/05/16 16:26:53;;;;;;;17.05;4.25;;;;;;;;;;5052670;28;20040;-68
2022/05/16 16:29:57;;;;;;;15.50;4.30;;;;;;;;;;5053260;28;20159;-69
2022/05/16 16:33:02;;;;;;;15.38;4.40;;;;;;;;;;5052701;28;20052;-67
2022/05/16 16:36:06;;;;;;;19.05;5.32;;;;;;;;;;5052952;28;20108;-68
2022/05/16 16:39:12;;;;;;;23.83;5.10;;;;;;;;;;5052923;28;20060;-72
2022/05/16 16:42:17;;;;;;;22.63;5.15;;;;;;;;;;5053250;28;20056;-70
2022/05/16 16:45:22;;;;;;;19.83;4.60;;;;;;;;;;5052990;28;20547;-70
2022/05/16 16:48:29;;;;;;;27.38;5.18;;;;;;;;;;5052759;28;20040;-69
2022/05/16 16:58:23;;;;;;;23.33;5.75;;;;;;;;;;5052684;28;20052;-73
2022/05/16 17:01:28;;;;;;;22.98;5.47;;;;;;;;;;5051813;28;20052;-72
2022/05/16 17:04:33;;;;;;;26.00;4.97;;;;;;;;;;5048870;28;20052;-72
2022/05/16 17:07:38;;;;;;;35.38;5.20;;;;;;;;;;5049450;28;20051;-72
2022/05/16 17:11:01;;;;;;;22.33;5.80;;;;;;;;;;5049226;28;20047;-71
2022/05/16 17:14:06;;;;;;;15.63;5.18;;;;;;;;;;5050559;28;20060;-71
2022/05/16 17:17:10;;;;;;;16.33;4.20;;;;;;;;;;5050200;28;20047;-72
2022/05/16 17:20:15;;;;;;;14.57;4.20;;;;;;;;;;5050034;28;20052;-72
2022/05/16 17:23:19;;;;;;;19.83;5.57;;;;;;;;;;5050151;28;20040;-72
2022/05/16 17:26:24;;;;;;;29.00;5.18;;;;;;;;;;5050336;28;20048;-71
2022/05/16 17:29:29;;;;;;;36.65;5.40;;;;;;;;;;5049893;28;20044;-71
2022/05/16 17:32:33;;;;;;;28.15;5.20;;;;;;;;;;5038177;28;20044;-71
2022/05/16 17:35:38;;;;;;;24.45;4.70;;;;;;;;;;5051254;28;20051;-72
2022/05/16 17:38:45;;;;;;;15.45;3.90;;;;;;;;;;5050905;28;20135;-71
2022/05/16 17:41:51;;;;;;;22.25;4.90;;;;;;;;;;5051017;28;20481;-71
2022/05/16 17:44:55;;;;;;;14.90;4.10;;;;;;;;;;5051516;28;20048;-70
2022/05/16 17:48:00;;;;;;;13.43;4.20;;;;;;;;;;5051632;28;20068;-70
2022/05/16 17:51:12;;;;;;;14.65;3.97;;;;;;;;;;5051315;28;20503;-71
2022/05/16 17:54:18;;;;;;;20.17;4.20;;;;;;;;;;5050458;28;20040;-71
2022/05/16 17:57:23;;;;;;;13.35;4.28;;;;;;;;;;5051232;28;20059;-70
2022/05/16 18:00:27;;;;;;;18.88;4.15;;;;;;;;;;5050485;28;20072;-70
2022/05/16 18:03:32;;;;;;;25.35;4.97;;;;;;;;;;5051236;28;20040;-70
2022/05/16 18:06:37;;;;;;;14.23;4.05;;;;;;;;;;5051220;28;20385;-69
2022/05/16 18:09:41;;;;;;;13.05;4.30;;;;;;;;;;5051005;28;20048;-69
2022/05/16 18:12:46;;;;;;;16.67;4.45;;;;;;;;;;5051471;28;20068;-71
2022/05/16 18:15:51;;;;;;;21.30;4.38;;;;;;;;;;5050538;28;20389;-70
2022/05/16 18:18:56;;;;;;;18.98;4.75;;;;;;;;;;5051080;28;20064;-70
2022/05/16 18:22:01;;;;;;;18.05;4.60;;;;;;;;;;5051335;28;20113;-70
2022/05/16 18:25:09;;;;;;;18.23;4.28;;;;;;;;;;5051051;28;20052;-71
2022/05/16 18:28:15;;;;;;;20.63;6.10;;;;;;;;;;5051094;28;20040;-70
2022/05/16 18:31:21;;;;;;;19.40;6.45;;;;;;;;;;5050889;28;20040;-71
2022/05/16 18:34:25;;;;;;;12.80;5.25;;;;;;;;;;5051022;28;20047;-70
2022/05/16 18:37:29;;;;;;;16.63;5.00;;;;;;;;;;5051160;28;20059;-71
2022/05/16 18:40:34;;;;;;;17.33;4.75;;;;;;;;;;5051023;28;20064;-70
2022/05/16 18:53:48;;;;;;;41.83;6.47;;;;;;;;;;5050832;28;20048;-70
2022/05/16 18:56:52;;;;;;;29.98;5.35;;;;;;;;;;5050767;28;20310;-71
2022/05/16 18:59:57;;;;;;;18.00;5.20;;;;;;;;;;5050826;28;20052;-71
2022/05/16 19:03:01;;;;;;;19.58;7.03;;;;;;;;;;5050797;28;20059;-70
2022/05/16 19:06:07;;;;;;;28.52;7.15;;;;;;;;;;5050993;28;20389;-71
2022/05/16 19:09:11;;;;;;;26.30;8.35;;;;;;;;;;5049852;28;20056;-71
2022/05/16 19:12:16;;;;;;;27.17;6.72;;;;;;;;;;5050871;28;20052;-71
2022/05/16 19:15:22;;;;;;;24.08;7.18;;;;;;;;;;5050625;28;20064;-70
2022/05/16 19:18:26;;;;;;;18.52;7.32;;;;;;;;;;5050543;28;20056;-71
2022/05/16 19:21:41;;;;;;;21.38;6.90;;;;;;;;;;5050858;28;20293;-70
2022/05/16 19:24:46;;;;;;;19.55;5.55;;;;;;;;;;5050812;28;20044;-69
2022/05/16 19:34:38;;;;;;;18.77;5.22;;;;;;;;;;5050151;28;20044;-71
2022/05/16 19:37:43;;;;;;;17.23;4.63;;;;;;;;;;5054277;28;20048;-72